Pagina principale
METAR-TAF:

METAR-TAF

Aeroporti :

Aeroporto di Zagabria-Franjo Tuđman

Zagabria, Croazia

latitudine: 45-44N, longitudine: 016-04E, altezza: 106 m

Osservazione

Il bollettino è stato emesso 26 minuti fa, alle 04:00 UTC
Vento calmo
Temperature 3°C
Umidità 93%
Pressione 1026 hPa
Visibilità 10 km o più
nessuna nube inferiore a 1500 m e nessun cumulonembo

METAR: LDZA 270400Z 00000KT CAVOK 03/02 Q1026 BECMG 04008KT

Ora: 05:26 (04:26 UTC)

Previsione

Il bollettino è stato emesso 5 ore e 1 minuti fa, alle 23:25 UTC
Previsione valida dal 27 alle 00 UTC al 28 alle 00 UTC
Vento 2 kt da direzioni variabili
Visibilità 10 km o più
nessuna nube inferiore a 1500 m e nessun cumulonembo
Evoluzione graduale
dal 27 alle 00 UTC al 27 alle 02 UTC
Vento 8 kt da nord-est
Temporaneamente
dal 27 alle 02 UTC al 27 alle 20 UTC
Vento 12 kt da nord-est

TAF: LDZA 262325Z 2700/2800 VRB02KT CAVOK TX14/2714Z TN03/2700Z BECMG 2700/2702 04008KT TEMPO 2702/2720 04012KT

Osservazioni e previsioni meteorologiche di più di 4000 aeroporti (messaggi METAR e TAF).

Le stazioni disponibili sono rappresentate dai dischi gialli e rossi sulla carta.

Puntare il mouse per vedere il nome della stazione.

Clicca sopra per visualizzare le osservazioni e previsioni meteorologiche.

Per cambiare la mappa : fare clic sui pulsanti verdi con una croce nera per ingrandire, il pulsante verde con un trattino per diminuire, o sulla freccia verde per le mappe adiacenti.


METAR-TAF: